createdAt,value
2018-10-07T00:00:58.817Z,4.53
2018-10-07T00:03:32.104Z,7.00
2018-10-07T00:06:05.323Z,6.33
2018-10-07T00:08:38.816Z,5.67
2018-10-07T00:11:11.828Z,8.20
2018-10-07T00:13:45.054Z,7.13
2018-10-07T00:16:18.109Z,6.03
2018-10-07T00:18:51.257Z,5.97
2018-10-07T00:21:24.662Z,7.63
2018-10-07T00:23:58.468Z,6.77
2018-10-07T00:26:31.946Z,8.70
2018-10-07T00:29:05.035Z,7.33
2018-10-07T00:31:42.473Z,5.77
2018-10-07T00:34:15.594Z,5.83
2018-10-07T00:36:48.568Z,6.00
2018-10-07T00:39:22.123Z,5.87
2018-10-07T00:41:55.603Z,8.90
2018-10-07T00:44:29.016Z,6.53
2018-10-07T00:47:02.203Z,6.60
2018-10-07T00:49:35.487Z,9.83
2018-10-07T00:52:08.776Z,5.37
2018-10-07T00:54:42.248Z,6.97
2018-10-07T00:57:15.922Z,7.47
2018-10-07T00:59:49.261Z,7.47
2018-10-07T01:02:23.137Z,8.53
2018-10-07T01:04:56.328Z,6.03
2018-10-07T01:07:29.606Z,6.97
2018-10-07T01:10:03.305Z,6.93
2018-10-07T01:12:36.327Z,6.77
2018-10-07T01:15:09.278Z,6.20
2018-10-07T01:17:43.015Z,6.20
2018-10-07T01:20:16.570Z,8.77
2018-10-07T01:22:51.034Z,6.43
2018-10-07T01:25:24.416Z,7.00
2018-10-07T01:27:57.768Z,6.93
2018-10-07T01:30:31.600Z,7.87
2018-10-07T01:33:14.621Z,7.83
2018-10-07T01:35:56.116Z,7.50
2018-10-07T01:38:29.697Z,8.10
2018-10-07T01:41:07.137Z,8.53
2018-10-07T01:43:49.732Z,6.70
2018-10-07T01:46:31.406Z,8.40
2018-10-07T01:49:13.001Z,7.73
2018-10-07T01:51:58.536Z,8.63
2018-10-07T01:54:32.726Z,6.73
2018-10-07T01:57:07.245Z,8.43
2018-10-07T01:59:43.210Z,7.30
2018-10-07T02:02:17.718Z,7.33
2018-10-07T02:04:52.386Z,9.53
2018-10-07T02:07:27.608Z,8.00
2018-10-07T02:10:01.657Z,9.53
2018-10-07T02:12:36.526Z,8.70
2018-10-07T02:15:13.376Z,8.10
2018-10-07T02:17:47.139Z,7.77
2018-10-07T02:20:21.766Z,9.13
2018-10-07T02:22:55.643Z,7.30
2018-10-07T02:25:30.165Z,8.53
2018-10-07T02:28:03.438Z,9.30
2018-10-07T02:30:37.471Z,9.40
2018-10-07T02:33:10.494Z,8.80
2018-10-07T02:35:44.730Z,10.37
2018-10-07T02:38:19.927Z,11.40
2018-10-07T02:40:53.957Z,10.63
2018-10-07T02:43:27.885Z,12.20
2018-10-07T02:46:01.316Z,12.17
2018-10-07T02:48:34.839Z,13.50
2018-10-07T02:51:08.146Z,11.70
2018-10-07T02:53:41.789Z,12.93
2018-10-07T02:56:15.059Z,9.90
2018-10-07T02:58:48.654Z,11.37
2018-10-07T03:01:22.104Z,12.27
2018-10-07T03:03:55.566Z,10.23
2018-10-07T03:06:29.259Z,10.27
2018-10-07T03:09:02.745Z,10.47
2018-10-07T03:11:35.908Z,10.50
2018-10-07T03:14:09.303Z,10.37
2018-10-07T03:16:42.463Z,12.73
2018-10-07T03:19:15.575Z,12.97
2018-10-07T03:21:48.695Z,23.13
2018-10-07T03:24:22.017Z,22.10
2018-10-07T03:26:55.154Z,19.97
2018-10-07T03:29:27.991Z,15.47
2018-10-07T03:32:01.370Z,15.53
2018-10-07T03:34:34.483Z,14.67
2018-10-07T03:37:07.634Z,11.20
2018-10-07T03:39:41.002Z,9.40
2018-10-07T03:42:15.319Z,9.30
2018-10-07T03:44:48.604Z,9.43
2018-10-07T03:47:22.106Z,9.00
2018-10-07T03:49:56.511Z,10.63
2018-10-07T03:52:30.101Z,9.67
2018-10-07T03:55:03.782Z,9.90
2018-10-07T03:57:38.548Z,8.20
2018-10-07T04:00:12.091Z,7.93
2018-10-07T04:02:46.495Z,8.03
2018-10-07T04:05:20.861Z,7.90
2018-10-07T04:10:37.060Z,7.73
2018-10-07T04:13:17.565Z,8.60
2018-10-07T04:19:00.172Z,9.03
2018-10-07T04:21:40.641Z,8.37
2018-10-07T04:24:19.450Z,10.87
2018-10-07T04:26:54.539Z,9.83
2018-10-07T04:29:29.022Z,9.27
2018-10-07T04:32:02.398Z,14.83
2018-10-07T04:34:40.193Z,9.10
2018-10-07T04:37:15.878Z,14.67
2018-10-07T04:39:50.696Z,15.60
2018-10-07T04:42:24.156Z,13.10
2018-10-07T04:44:59.465Z,10.57
2018-10-07T04:47:37.085Z,12.47
2018-10-07T04:50:13.640Z,10.57
2018-10-07T04:52:50.668Z,11.30
2018-10-07T04:55:25.126Z,12.23
2018-10-07T04:58:01.181Z,11.97
2018-10-07T05:00:35.578Z,14.20
2018-10-07T05:03:13.091Z,10.53
2018-10-07T05:05:59.012Z,10.70
2018-10-07T05:08:38.345Z,10.10
2018-10-07T05:11:17.735Z,10.97
2018-10-07T05:13:55.255Z,11.67
2018-10-07T05:16:40.030Z,11.43
2018-10-07T05:19:18.491Z,12.57
2018-10-07T05:21:55.231Z,10.67
2018-10-07T05:24:38.811Z,11.83
2018-10-07T05:27:31.025Z,11.23
2018-10-07T05:30:12.809Z,14.07
2018-10-07T05:32:57.445Z,11.43
2018-10-07T05:35:41.279Z,12.13
2018-10-07T05:38:16.905Z,12.47
2018-10-07T05:40:57.344Z,12.07
2018-10-07T05:43:33.791Z,11.60
2018-10-07T05:46:10.320Z,11.77
2018-10-07T05:48:51.349Z,11.10
2018-10-07T05:51:24.455Z,11.73
2018-10-07T05:54:06.925Z,11.70
2018-10-07T05:56:46.545Z,13.97
2018-10-07T05:59:25.433Z,12.07
2018-10-07T06:02:38.499Z,12.57
2018-10-07T06:05:20.382Z,11.00
2018-10-07T06:07:58.533Z,13.33
2018-10-07T06:10:40.522Z,10.37
2018-10-07T06:16:04.111Z,14.90
2018-10-07T06:18:42.808Z,12.77
2018-10-07T06:21:16.219Z,11.83
2018-10-07T06:23:49.701Z,10.67
2018-10-07T06:26:22.912Z,13.33
2018-10-07T06:28:56.187Z,13.93
2018-10-07T06:31:49.331Z,11.77
2018-10-07T06:34:24.206Z,10.73
2018-10-07T06:42:36.535Z,12.60
2018-10-07T06:45:10.677Z,10.50
2018-10-07T06:47:53.545Z,12.50
2018-10-07T06:50:33.026Z,10.60
2018-10-07T06:53:12.478Z,12.90
2018-10-07T06:55:55.120Z,11.50
2018-10-07T06:58:48.995Z,9.30
2018-10-07T07:01:32.900Z,10.53
2018-10-07T07:04:06.930Z,13.33
2018-10-07T07:06:55.841Z,10.03
2018-10-07T07:09:46.475Z,10.03
2018-10-07T07:12:26.646Z,10.90
2018-10-07T07:15:03.670Z,10.67
2018-10-07T07:17:41.183Z,10.63
2018-10-07T07:20:23.796Z,8.83
2018-10-07T07:22:57.520Z,9.63
2018-10-07T07:25:30.966Z,10.13
2018-10-07T07:28:05.277Z,9.40
2018-10-07T07:30:40.587Z,10.57
2018-10-07T07:33:16.797Z,7.97
2018-10-07T07:35:49.882Z,10.53
2018-10-07T07:38:22.870Z,9.03
2018-10-07T07:40:56.232Z,8.80
2018-10-07T07:43:29.502Z,11.33
2018-10-07T15:33:55.574Z,5.60
2018-10-07T15:36:30.506Z,6.33
2018-10-07T15:39:04.124Z,3.63
2018-10-07T15:41:37.636Z,5.37
2018-10-07T15:44:13.112Z,5.27
2018-10-07T15:46:48.048Z,5.80
2018-10-07T15:49:21.248Z,4.07
2018-10-07T15:51:54.416Z,5.33
2018-10-07T15:54:28.265Z,4.27
2018-10-07T15:57:01.952Z,5.17
2018-10-07T15:59:35.244Z,5.80
2018-10-07T16:02:08.626Z,3.60
2018-10-07T16:04:42.385Z,9.23
2018-10-07T16:07:18.812Z,4.97
2018-10-07T16:09:52.360Z,5.27
2018-10-07T16:12:25.948Z,4.43
2018-10-07T16:14:58.972Z,3.90
2018-10-07T16:17:32.205Z,3.70
2018-10-07T16:20:05.268Z,4.53
2018-10-07T16:22:39.078Z,7.20
2018-10-07T16:25:12.295Z,3.00
2018-10-07T16:27:45.693Z,4.23
2018-10-07T16:30:18.831Z,3.37
2018-10-07T16:32:52.280Z,4.27
2018-10-07T16:35:25.333Z,3.87
2018-10-07T16:37:58.592Z,3.13
2018-10-07T16:40:31.611Z,4.47
2018-10-07T16:43:05.388Z,2.97
2018-10-07T16:45:38.775Z,4.07
2018-10-07T16:48:12.292Z,4.37
2018-10-07T16:50:45.554Z,5.20
2018-10-07T16:53:19.456Z,3.53
2018-10-07T16:55:53.390Z,5.47
2018-10-07T16:58:27.255Z,5.20
2018-10-07T17:01:00.671Z,5.00
2018-10-07T17:03:33.905Z,7.47
2018-10-07T17:06:08.005Z,5.10
2018-10-07T17:08:41.864Z,7.97
2018-10-07T17:11:15.149Z,4.20
2018-10-07T17:13:48.739Z,4.50
2018-10-07T17:16:22.104Z,4.53
2018-10-07T17:18:55.441Z,6.03
2018-10-07T17:21:28.910Z,4.67
2018-10-07T17:24:02.404Z,4.10
2018-10-07T17:26:35.812Z,5.30
2018-10-07T17:29:09.803Z,3.63
2018-10-07T17:31:44.113Z,4.67
2018-10-07T17:34:17.483Z,3.80
2018-10-07T17:36:50.617Z,5.07
2018-10-07T17:39:23.996Z,6.57
2018-10-07T17:41:59.286Z,6.57
2018-10-07T17:44:34.023Z,5.77
2018-10-07T17:47:07.345Z,5.27
2018-10-07T17:49:40.320Z,5.23
2018-10-07T17:52:13.753Z,5.10
2018-10-07T17:54:48.370Z,5.13
2018-10-07T17:57:23.689Z,4.00
2018-10-07T17:59:57.414Z,5.73
2018-10-07T18:02:31.434Z,8.33
2018-10-07T18:05:04.886Z,4.10
2018-10-07T18:07:38.139Z,7.93
2018-10-07T18:10:12.853Z,5.50
2018-10-07T18:12:47.817Z,6.13
2018-10-07T18:15:21.067Z,5.37
2018-10-07T18:17:54.186Z,5.67
2018-10-07T18:20:27.111Z,5.47
2018-10-07T18:23:00.591Z,7.70
2018-10-07T18:25:35.099Z,6.67
2018-10-07T18:28:09.006Z,4.60
2018-10-07T18:30:42.432Z,4.63
2018-10-07T18:33:16.290Z,4.03
2018-10-07T18:35:49.666Z,5.77
2018-10-07T18:38:23.661Z,4.87
2018-10-07T18:40:57.727Z,6.57
2018-10-07T18:43:31.418Z,6.90
2018-10-07T18:46:05.849Z,8.63
2018-10-07T18:48:39.290Z,5.40
2018-10-07T18:51:13.010Z,6.53
2018-10-07T18:53:47.841Z,8.97
2018-10-07T18:56:21.478Z,6.37
2018-10-07T18:58:55.649Z,4.37
2018-10-07T19:01:29.487Z,6.60
2018-10-07T19:04:08.364Z,6.00
2018-10-07T19:06:47.274Z,4.57
2018-10-07T19:09:20.659Z,5.13
2018-10-07T19:11:54.033Z,5.80
2018-10-07T19:14:30.365Z,8.03
2018-10-07T19:17:08.820Z,5.00
2018-10-07T19:19:43.268Z,7.53
2018-10-07T19:22:37.002Z,5.13
2018-10-07T19:25:11.322Z,4.93
2018-10-07T19:27:45.704Z,3.37
2018-10-07T19:30:19.412Z,5.13
2018-10-07T19:32:52.723Z,3.43
2018-10-07T19:35:25.909Z,3.87
2018-10-07T19:37:59.911Z,3.60
2018-10-07T19:40:32.987Z,4.87
2018-10-07T19:43:06.098Z,6.57
2018-10-07T19:45:39.404Z,5.07
2018-10-07T19:48:12.779Z,5.97
2018-10-07T19:50:47.247Z,4.37
2018-10-07T19:53:20.256Z,4.03
2018-10-07T19:55:53.382Z,6.40
2018-10-07T19:58:32.880Z,5.57
2018-10-07T20:01:06.564Z,3.47
2018-10-07T20:03:40.995Z,3.27
2018-10-07T20:06:14.374Z,3.43
2018-10-07T20:08:48.589Z,3.93
2018-10-07T20:11:21.505Z,6.50
2018-10-07T20:13:54.860Z,4.13
2018-10-07T20:16:33.610Z,3.37
2018-10-07T20:19:07.421Z,5.57
2018-10-07T20:21:40.803Z,3.60
2018-10-07T20:24:16.519Z,4.17
2018-10-07T20:26:50.720Z,3.67
2018-10-07T20:29:24.212Z,5.83
2018-10-07T20:31:58.380Z,2.93
2018-10-07T20:34:32.650Z,4.67
2018-10-07T20:37:07.208Z,4.03
2018-10-07T20:39:42.675Z,4.17
2018-10-07T20:42:17.615Z,4.90
2018-10-07T20:44:52.161Z,5.10
2018-10-07T20:47:25.388Z,5.47
2018-10-07T20:49:58.960Z,4.83
2018-10-07T20:52:32.170Z,5.53
2018-10-07T20:55:05.884Z,6.03
2018-10-07T20:57:39.327Z,3.47
2018-10-07T21:00:12.407Z,2.70
2018-10-07T21:02:46.288Z,3.57
2018-10-07T21:05:20.103Z,3.43
2018-10-07T21:07:54.786Z,3.80
2018-10-07T21:10:28.834Z,4.40
2018-10-07T21:13:02.105Z,5.00
2018-10-07T21:15:36.121Z,3.60
2018-10-07T21:20:50.735Z,2.73
2018-10-07T21:23:25.740Z,3.27
2018-10-07T21:25:59.057Z,4.53
2018-10-07T21:28:32.929Z,3.80
2018-10-07T21:31:06.168Z,3.57
2018-10-07T21:33:39.777Z,5.60
2018-10-07T21:36:13.977Z,2.87
2018-10-07T21:38:47.013Z,3.07
2018-10-07T21:41:23.075Z,3.93
2018-10-07T21:43:56.596Z,4.37
2018-10-07T21:46:30.095Z,3.57
2018-10-07T21:49:04.258Z,2.50
2018-10-07T21:51:38.749Z,2.47
2018-10-07T21:54:12.288Z,2.70
2018-10-07T21:56:46.555Z,3.47
2018-10-07T21:59:19.679Z,2.00
2018-10-07T22:01:53.185Z,3.50
2018-10-07T22:04:26.313Z,3.40
2018-10-07T22:06:59.999Z,3.97
2018-10-07T22:09:33.122Z,2.63
2018-10-07T22:12:06.357Z,4.33
2018-10-07T22:14:39.617Z,4.70
2018-10-07T22:17:13.153Z,4.40
2018-10-07T22:19:48.403Z,3.67
2018-10-07T22:22:21.644Z,5.20
2018-10-07T22:24:54.989Z,3.87
2018-10-07T22:27:28.397Z,3.80
2018-10-07T22:30:03.458Z,5.67
2018-10-07T22:32:37.978Z,4.17
2018-10-07T22:35:12.734Z,6.17
2018-10-07T22:37:48.406Z,5.97
2018-10-07T22:40:22.927Z,5.70
2018-10-07T22:42:56.193Z,5.50
2018-10-07T22:45:29.792Z,5.93
2018-10-07T22:48:07.600Z,6.77
2018-10-07T22:50:44.178Z,6.00
2018-10-07T22:53:21.709Z,5.83
2018-10-07T22:55:55.685Z,5.70
2018-10-07T22:58:30.351Z,4.00
2018-10-07T23:01:03.357Z,4.20
2018-10-07T23:03:36.357Z,4.50
2018-10-07T23:06:10.986Z,5.23
2018-10-07T23:08:44.175Z,5.37
2018-10-07T23:11:20.862Z,3.83
2018-10-07T23:13:59.414Z,4.07
2018-10-07T23:16:32.856Z,5.50
2018-10-07T23:19:06.527Z,3.57
2018-10-07T23:21:41.278Z,6.37
2018-10-07T23:24:14.367Z,4.27
2018-10-07T23:26:49.494Z,4.73
2018-10-07T23:29:22.724Z,5.37
2018-10-07T23:31:55.769Z,4.83
2018-10-07T23:34:29.651Z,3.67
2018-10-07T23:37:03.663Z,4.40
2018-10-07T23:39:37.060Z,3.47
2018-10-07T23:42:11.324Z,4.50
2018-10-07T23:44:44.792Z,5.47
2018-10-07T23:47:17.846Z,3.80
2018-10-07T23:49:51.585Z,4.17
2018-10-07T23:52:24.600Z,5.53
2018-10-07T23:54:57.764Z,3.50
2018-10-07T23:57:31.130Z,5.23
